sensor_id;sensor_type;location;lat;lon;timestamp;P1;P2;P0
82815;PMS5003;72570;46.826;-71.244;2023-09-18T00:00:31;10.85;9.05;6
82815;PMS5003;72570;46.826;-71.244;2023-09-18T00:02:56;10.3;9.5;6.15
82815;PMS5003;72570;46.826;-71.244;2023-09-18T00:05:22;12.2;11.45;5.85
82815;PMS5003;72570;46.826;-71.244;2023-09-18T00:07:49;17.35;12.75;6.5
82815;PMS5003;72570;46.826;-71.244;2023-09-18T00:10:14;10.35;9.1;4.9
82815;PMS5003;72570;46.826;-71.244;2023-09-18T00:12:40;11.05;10.1;6.1
82815;PMS5003;72570;46.826;-71.244;2023-09-18T00:15:07;18.6;11.2;6.95
82815;PMS5003;72570;46.826;-71.244;2023-09-18T00:17:31;11.24;10.57;6.19
82815;PMS5003;72570;46.826;-71.244;2023-09-18T00:19:56;11.65;11.65;6.15
82815;PMS5003;72570;46.826;-71.244;2023-09-18T00:22:22;19.24;11.33;5.48
82815;PMS5003;72570;46.826;-71.244;2023-09-18T00:24:47;14.6;10.25;5.45
82815;PMS5003;72570;46.826;-71.244;2023-09-18T00:27:14;12.45;10.05;5.8
82815;PMS5003;72570;46.826;-71.244;2023-09-18T00:29:38;11.15;10;6.5
82815;PMS5003;72570;46.826;-71.244;2023-09-18T00:32:05;14.62;10.9;5.86
82815;PMS5003;72570;46.826;-71.244;2023-09-18T00:34:29;15.9;11.95;6.35
82815;PMS5003;72570;46.826;-71.244;2023-09-18T00:36:57;14;10.79;5.74
82815;PMS5003;72570;46.826;-71.244;2023-09-18T00:39:22;10.65;9.4;5
82815;PMS5003;72570;46.826;-71.244;2023-09-18T00:41:47;7.2;7.2;4
82815;PMS5003;72570;46.826;-71.244;2023-09-18T00:44:12;9.9;9.9;6.3
82815;PMS5003;72570;46.826;-71.244;2023-09-18T00:46:36;9.2;9;5.6
82815;PMS5003;72570;46.826;-71.244;2023-09-18T00:49:01;11.24;9.1;5.19
82815;PMS5003;72570;46.826;-71.244;2023-09-18T00:51:28;13.2;11.65;6.1
82815;PMS5003;72570;46.826;-71.244;2023-09-18T00:53:54;9.9;9.2;6.55
82815;PMS5003;72570;46.826;-71.244;2023-09-18T00:56:20;11.75;10.8;7.55
82815;PMS5003;72570;46.826;-71.244;2023-09-18T00:58:45;10.6;10.5;5.5
82815;PMS5003;72570;46.826;-71.244;2023-09-18T01:01:09;13.45;12.05;6.75
82815;PMS5003;72570;46.826;-71.244;2023-09-18T01:03:36;10;10;6
82815;PMS5003;72570;46.826;-71.244;2023-09-18T01:05:59;20;14.48;6.81
82815;PMS5003;72570;46.826;-71.244;2023-09-18T01:08:27;10.45;10.35;6.35
82815;PMS5003;72570;46.826;-71.244;2023-09-18T01:10:54;10.1;9.8;6.25
82815;PMS5003;72570;46.826;-71.244;2023-09-18T01:13:17;13.55;12.05;6.65
82815;PMS5003;72570;46.826;-71.244;2023-09-18T01:15:42;13.89;11.05;6.74
82815;PMS5003;72570;46.826;-71.244;2023-09-18T01:18:09;13.15;13.15;7
82815;PMS5003;72570;46.826;-71.244;2023-09-18T01:20:31;17.1;14.14;7.29
82815;PMS5003;72570;46.826;-71.244;2023-09-18T01:22:59;11.29;11.29;6.67
82815;PMS5003;72570;46.826;-71.244;2023-09-18T01:25:23;12.25;10.8;6
82815;PMS5003;72570;46.826;-71.244;2023-09-18T01:27:50;14.05;12.15;7.25
82815;PMS5003;72570;46.826;-71.244;2023-09-18T01:30:14;14.21;11.26;6.58
82815;PMS5003;72570;46.826;-71.244;2023-09-18T01:32:40;14;13.5;7.5
82815;PMS5003;72570;46.826;-71.244;2023-09-18T01:35:05;12.43;10.48;5.38
82815;PMS5003;72570;46.826;-71.244;2023-09-18T01:37:31;12.33;12.1;5.81
82815;PMS5003;72570;46.826;-71.244;2023-09-18T01:39:56;12.24;10.76;7.05
82815;PMS5003;72570;46.826;-71.244;2023-09-18T01:42:23;14.75;12.05;7.35
82815;PMS5003;72570;46.826;-71.244;2023-09-18T01:44:48;10.35;10.35;6.55
82815;PMS5003;72570;46.826;-71.244;2023-09-18T01:47:12;11.5;10.35;6.15
82815;PMS5003;72570;46.826;-71.244;2023-09-18T01:49:39;12.95;11.15;6.95
82815;PMS5003;72570;46.826;-71.244;2023-09-18T01:52:03;12.81;12.38;6.76
82815;PMS5003;72570;46.826;-71.244;2023-09-18T01:54:30;14.19;12.29;7.14
82815;PMS5003;72570;46.826;-71.244;2023-09-18T01:56:55;10.45;10.45;7.18
82815;PMS5003;72570;46.826;-71.244;2023-09-18T01:59:21;13.1;12.9;8
82815;PMS5003;72570;46.826;-71.244;2023-09-18T02:01:47;14.48;12.57;8.76
82815;PMS5003;72570;46.826;-71.244;2023-09-18T02:04:10;12.45;10.8;7.45
82815;PMS5003;72570;46.826;-71.244;2023-09-18T02:06:37;13.24;13.24;8.05
82815;PMS5003;72570;46.826;-71.244;2023-09-18T02:09:02;15.52;13.81;7.38
82815;PMS5003;72570;46.826;-71.244;2023-09-18T02:11:26;13.05;13.05;8.05
82815;PMS5003;72570;46.826;-71.244;2023-09-18T02:13:53;14.23;13.27;7
82815;PMS5003;72570;46.826;-71.244;2023-09-18T02:16:16;12.33;12.24;6.76
82815;PMS5003;72570;46.826;-71.244;2023-09-18T02:18:43;10.85;10.55;7
82815;PMS5003;72570;46.826;-71.244;2023-09-18T02:21:07;11.9;9.85;4.85
82815;PMS5003;72570;46.826;-71.244;2023-09-18T02:23:34;12.6;10.6;6.1
82815;PMS5003;72570;46.826;-71.244;2023-09-18T02:26:00;11.15;9.8;5.65
82815;PMS5003;72570;46.826;-71.244;2023-09-18T02:28:24;14;12.35;7.4
82815;PMS5003;72570;46.826;-71.244;2023-09-18T02:30:51;15.24;13.95;7
82815;PMS5003;72570;46.826;-71.244;2023-09-18T02:33:15;17.15;12.25;6.6
82815;PMS5003;72570;46.826;-71.244;2023-09-18T02:35:41;13.4;12.65;7
82815;PMS5003;72570;46.826;-71.244;2023-09-18T02:38:05;9.3;9.3;5.4
82815;PMS5003;72570;46.826;-71.244;2023-09-18T02:40:30;12.85;11.45;6.55
82815;PMS5003;72570;46.826;-71.244;2023-09-18T02:42:57;13.15;11.15;5.95
82815;PMS5003;72570;46.826;-71.244;2023-09-18T02:45:23;19.1;11;6.95
82815;PMS5003;72570;46.826;-71.244;2023-09-18T02:47:48;13.71;10.67;6.38
82815;PMS5003;72570;46.826;-71.244;2023-09-18T02:50:13;13.35;11.7;6.5
82815;PMS5003;72570;46.826;-71.244;2023-09-18T02:52:37;9.75;9.3;6.05
82815;PMS5003;72570;46.826;-71.244;2023-09-18T02:55:04;11.43;10.14;4.95
82815;PMS5003;72570;46.826;-71.244;2023-09-18T02:57:30;14.55;11.7;6.9
82815;PMS5003;72570;46.826;-71.244;2023-09-18T02:59:52;12.5;11.3;6.1
82815;PMS5003;72570;46.826;-71.244;2023-09-18T03:02:19;13.65;11.9;7.5
82815;PMS5003;72570;46.826;-71.244;2023-09-18T03:04:46;14.57;11.81;7.38
82815;PMS5003;72570;46.826;-71.244;2023-09-18T03:07:12;11.65;9.45;5.1
82815;PMS5003;72570;46.826;-71.244;2023-09-18T03:09:35;12.9;12.86;7.33
82815;PMS5003;72570;46.826;-71.244;2023-09-18T03:12:01;19.7;14.5;8
82815;PMS5003;72570;46.826;-71.244;2023-09-18T03:14:25;15.65;12.85;6.3
82815;PMS5003;72570;46.826;-71.244;2023-09-18T03:16:51;18.3;16.1;8.6
82815;PMS5003;72570;46.826;-71.244;2023-09-18T03:19:17;13.57;13.38;7
82815;PMS5003;72570;46.826;-71.244;2023-09-18T03:21:41;14.05;13.76;8.33
82815;PMS5003;72570;46.826;-71.244;2023-09-18T03:24:08;13.9;11.86;7.67
82815;PMS5003;72570;46.826;-71.244;2023-09-18T03:26:34;13.4;13.25;7.3
82815;PMS5003;72570;46.826;-71.244;2023-09-18T03:28:58;21.3;13.55;7
82815;PMS5003;72570;46.826;-71.244;2023-09-18T03:31:23;14;11.8;5.75
82815;PMS5003;72570;46.826;-71.244;2023-09-18T03:33:48;12.57;10.95;6.19
82815;PMS5003;72570;46.826;-71.244;2023-09-18T03:36:15;11.1;10.5;6.8
82815;PMS5003;72570;46.826;-71.244;2023-09-18T03:38:41;12.14;12.14;7.18
82815;PMS5003;72570;46.826;-71.244;2023-09-18T03:41:05;15.47;12;6.74
82815;PMS5003;72570;46.826;-71.244;2023-09-18T03:43:31;13.15;11.9;7.95
82815;PMS5003;72570;46.826;-71.244;2023-09-18T03:46:02;11.67;10.76;6.38
82815;PMS5003;72570;46.826;-71.244;2023-09-18T03:48:20;12.6;11.65;5.7
82815;PMS5003;72570;46.826;-71.244;2023-09-18T03:50:47;13.95;12.4;7.4
82815;PMS5003;72570;46.826;-71.244;2023-09-18T03:53:13;15;14.3;7.9
82815;PMS5003;72570;46.826;-71.244;2023-09-18T03:55:37;14.43;12.43;8.05
82815;PMS5003;72570;46.826;-71.244;2023-09-18T03:58:02;13.81;11.62;5.95
82815;PMS5003;72570;46.826;-71.244;2023-09-18T04:00:29;14.05;12;6.25
82815;PMS5003;72570;46.826;-71.244;2023-09-18T04:02:53;15.35;14.2;8.35
82815;PMS5003;72570;46.826;-71.244;2023-09-18T04:05:20;15.5;13.5;8.65
82815;PMS5003;72570;46.826;-71.244;2023-09-18T04:07:44;13.52;12.62;7.67
82815;PMS5003;72570;46.826;-71.244;2023-09-18T04:10:14;11.5;10.91;6.73
82815;PMS5003;72570;46.826;-71.244;2023-09-18T04:12:41;15.09;12.86;7.23
82815;PMS5003;72570;46.826;-71.244;2023-09-18T04:15:05;15.48;12.62;6.76
82815;PMS5003;72570;46.826;-71.244;2023-09-18T04:17:31;13.9;12;7.52
82815;PMS5003;72570;46.826;-71.244;2023-09-18T04:19:57;13.43;12.95;6.81
82815;PMS5003;72570;46.826;-71.244;2023-09-18T04:22:20;13.71;12.38;6.33
82815;PMS5003;72570;46.826;-71.244;2023-09-18T04:24:47;11.76;9.71;5.38
82815;PMS5003;72570;46.826;-71.244;2023-09-18T04:27:11;14.91;12.32;7.5
82815;PMS5003;72570;46.826;-71.244;2023-09-18T04:29:37;10.48;9.57;6
82815;PMS5003;72570;46.826;-71.244;2023-09-18T04:32:03;15.2;11.8;6.35
82815;PMS5003;72570;46.826;-71.244;2023-09-18T04:34:29;11.4;11.2;5.9
82815;PMS5003;72570;46.826;-71.244;2023-09-18T04:36:53;16.65;14.75;7.75
82815;PMS5003;72570;46.826;-71.244;2023-09-18T04:39:18;14.38;13.05;7.67
82815;PMS5003;72570;46.826;-71.244;2023-09-18T04:41:43;12.05;12.05;7
82815;PMS5003;72570;46.826;-71.244;2023-09-18T04:44:09;19.95;13.86;8.19
82815;PMS5003;72570;46.826;-71.244;2023-09-18T04:46:36;12.52;12.52;7.67
82815;PMS5003;72570;46.826;-71.244;2023-09-18T04:48:59;12.1;11.81;6.81
82815;PMS5003;72570;46.826;-71.244;2023-09-18T04:51:25;13.9;12.1;7.1
82815;PMS5003;72570;46.826;-71.244;2023-09-18T04:53:51;16.74;11.84;6.21
82815;PMS5003;72570;46.826;-71.244;2023-09-18T04:56:16;13.62;13.1;7.19
82815;PMS5003;72570;46.826;-71.244;2023-09-18T04:58:41;13.19;11.38;7.81
82815;PMS5003;72570;46.826;-71.244;2023-09-18T05:01:07;14.86;11.77;7.59
82815;PMS5003;72570;46.826;-71.244;2023-09-18T05:03:32;14.19;12.29;7.52
82815;PMS5003;72570;46.826;-71.244;2023-09-18T05:05:59;12.62;12.62;6.9
82815;PMS5003;72570;46.826;-71.244;2023-09-18T05:08:22;10.38;10.38;6.24
82815;PMS5003;72570;46.826;-71.244;2023-09-18T05:10:48;12.9;11.48;6.52
82815;PMS5003;72570;46.826;-71.244;2023-09-18T05:13:14;21;14.8;8.75
82815;PMS5003;72570;46.826;-71.244;2023-09-18T05:15:40;17.85;14.55;8.2
82815;PMS5003;72570;46.826;-71.244;2023-09-18T05:18:04;14.86;14.36;7.05
82815;PMS5003;72570;46.826;-71.244;2023-09-18T05:20:30;12.71;12.14;6
82815;PMS5003;72570;46.826;-71.244;2023-09-18T05:22:55;13;11.1;6.14
82815;PMS5003;72570;46.826;-71.244;2023-09-18T05:25:19;16.14;13.24;8.38
82815;PMS5003;72570;46.826;-71.244;2023-09-18T05:27:44;15.3;12.75;7.45
82815;PMS5003;72570;46.826;-71.244;2023-09-18T05:30:12;15.5;13.35;6.2
82815;PMS5003;72570;46.826;-71.244;2023-09-18T05:32:37;14.14;14.14;7.9
82815;PMS5003;72570;46.826;-71.244;2023-09-18T05:35:02;13.09;11.41;6.5
82815;PMS5003;72570;46.826;-71.244;2023-09-18T05:37:29;11.81;11.62;6.9
82815;PMS5003;72570;46.826;-71.244;2023-09-18T05:39:53;13.62;11.05;6.9
82815;PMS5003;72570;46.826;-71.244;2023-09-18T05:42:17;15.86;14.05;7.95
82815;PMS5003;72570;46.826;-71.244;2023-09-18T05:44:43;11.86;11.71;6.33
82815;PMS5003;72570;46.826;-71.244;2023-09-18T05:47:07;12.9;12.67;7.19
82815;PMS5003;72570;46.826;-71.244;2023-09-18T05:49:34;12.95;10.76;6.05
82815;PMS5003;72570;46.826;-71.244;2023-09-18T05:51:59;15;12.5;6.68
82815;PMS5003;72570;46.826;-71.244;2023-09-18T05:54:25;20.9;14.5;8.3
82815;PMS5003;72570;46.826;-71.244;2023-09-18T05:56:49;15;14.24;7.38
82815;PMS5003;72570;46.826;-71.244;2023-09-18T05:59:17;13.57;12.33;6.43
82815;PMS5003;72570;46.826;-71.244;2023-09-18T06:01:39;12.14;9.52;5.33
82815;PMS5003;72570;46.826;-71.244;2023-09-18T06:04:06;19.52;14.19;6.9
82815;PMS5003;72570;46.826;-71.244;2023-09-18T06:06:30;15.81;13.1;7.86
82815;PMS5003;72570;46.826;-71.244;2023-09-18T06:08:58;16.64;14.32;7.64
82815;PMS5003;72570;46.826;-71.244;2023-09-18T06:11:21;15.62;13.95;7.33
82815;PMS5003;72570;46.826;-71.244;2023-09-18T06:13:46;15.62;12.76;7
82815;PMS5003;72570;46.826;-71.244;2023-09-18T06:16:13;15.29;14.19;7.43
82815;PMS5003;72570;46.826;-71.244;2023-09-18T06:18:39;18.14;16.24;8.48
82815;PMS5003;72570;46.826;-71.244;2023-09-18T06:21:02;21.45;14;7.05
82815;PMS5003;72570;46.826;-71.244;2023-09-18T06:23:28;21.2;15.5;8.8
82815;PMS5003;72570;46.826;-71.244;2023-09-18T06:25:54;16.43;13.48;7.43
82815;PMS5003;72570;46.826;-71.244;2023-09-18T06:28:19;14.67;14.67;6.9
82815;PMS5003;72570;46.826;-71.244;2023-09-18T06:30:46;14.52;13.57;7.1
82815;PMS5003;72570;46.826;-71.244;2023-09-18T06:33:12;16.95;14.38;8.19
82815;PMS5003;72570;46.826;-71.244;2023-09-18T06:35:35;14.19;11.95;6.67
82815;PMS5003;72570;46.826;-71.244;2023-09-18T06:38:00;20.95;14.05;7.37
82815;PMS5003;72570;46.826;-71.244;2023-09-18T06:40:26;10.86;10.86;6.71
82815;PMS5003;72570;46.826;-71.244;2023-09-18T06:42:52;15.77;12.23;5.5
82815;PMS5003;72570;46.826;-71.244;2023-09-18T06:45:17;13.86;13;7.62
82815;PMS5003;72570;46.826;-71.244;2023-09-18T06:47:42;14.86;12.19;7.48
82815;PMS5003;72570;46.826;-71.244;2023-09-18T06:50:09;19;16.48;8.05
82815;PMS5003;72570;46.826;-71.244;2023-09-18T06:52:35;14.43;14.29;8.38
82815;PMS5003;72570;46.826;-71.244;2023-09-18T06:54:57;20.8;13.95;8
82815;PMS5003;72570;46.826;-71.244;2023-09-18T06:57:24;19.1;15.71;7.95
82815;PMS5003;72570;46.826;-71.244;2023-09-18T06:59:50;15.86;13.91;7.68
82815;PMS5003;72570;46.826;-71.244;2023-09-18T07:02:14;14.76;13.29;8.71
82815;PMS5003;72570;46.826;-71.244;2023-09-18T07:04:39;12.29;12.29;7
82815;PMS5003;72570;46.826;-71.244;2023-09-18T07:07:05;13.24;12.9;7.52
82815;PMS5003;72570;46.826;-71.244;2023-09-18T07:09:31;12.1;11.33;4.86
82815;PMS5003;72570;46.826;-71.244;2023-09-18T07:11:57;12.9;10.95;6.81
82815;PMS5003;72570;46.826;-71.244;2023-09-18T07:14:21;17.24;13.9;8.38
82815;PMS5003;72570;46.826;-71.244;2023-09-18T07:16:48;16.68;13.45;8.05
82815;PMS5003;72570;46.826;-71.244;2023-09-18T07:19:11;15.62;12.62;6.9
82815;PMS5003;72570;46.826;-71.244;2023-09-18T07:21:37;15.43;13.1;8.67
82815;PMS5003;72570;46.826;-71.244;2023-09-18T07:24:03;14.71;14.29;8.1
82815;PMS5003;72570;46.826;-71.244;2023-09-18T07:26:28;25.5;15.8;10
82815;PMS5003;72570;46.826;-71.244;2023-09-18T07:28:52;16.9;14.19;7.86
82815;PMS5003;72570;46.826;-71.244;2023-09-18T07:31:19;12.52;12.52;8.24
82815;PMS5003;72570;46.826;-71.244;2023-09-18T07:33:46;15.05;14.95;8.64
82815;PMS5003;72570;46.826;-71.244;2023-09-18T07:36:10;14.67;12.86;8.24
82815;PMS5003;72570;46.826;-71.244;2023-09-18T07:38:34;15.05;11.24;7
82815;PMS5003;72570;46.826;-71.244;2023-09-18T07:41:01;16.33;15.43;9
82815;PMS5003;72570;46.826;-71.244;2023-09-18T07:43:24;14.19;13;7.29
82815;PMS5003;72570;46.826;-71.244;2023-09-18T07:45:52;20.4;15.35;8.2
82815;PMS5003;72570;46.826;-71.244;2023-09-18T07:48:14;13.35;12.25;7.25
82815;PMS5003;72570;46.826;-71.244;2023-09-18T07:50:43;16.73;14.36;8.95
82815;PMS5003;72570;46.826;-71.244;2023-09-18T07:53:06;22;15.26;8.42
82815;PMS5003;72570;46.826;-71.244;2023-09-18T07:55:33;13.76;13.48;7.62
82815;PMS5003;72570;46.826;-71.244;2023-09-18T07:57:58;13.57;13;6.9
82815;PMS5003;72570;46.826;-71.244;2023-09-18T08:00:24;18.79;14.37;7.68
82815;PMS5003;72570;46.826;-71.244;2023-09-18T08:02:49;16.29;14.95;8.62
82815;PMS5003;72570;46.826;-71.244;2023-09-18T08:05:13;13.1;12.33;6.48
82815;PMS5003;72570;46.826;-71.244;2023-09-18T08:07:39;13.32;12.95;7.18
82815;PMS5003;72570;46.826;-71.244;2023-09-18T08:10:08;12.57;12.33;8.24
82815;PMS5003;72570;46.826;-71.244;2023-09-18T08:12:31;14.43;13.19;7.19
82815;PMS5003;72570;46.826;-71.244;2023-09-18T08:14:55;16.1;13;7.62
82815;PMS5003;72570;46.826;-71.244;2023-09-18T08:17:21;13.38;12.9;8.38
82815;PMS5003;72570;46.826;-71.244;2023-09-18T08:19:46;17.52;13.48;6.62
82815;PMS5003;72570;46.826;-71.244;2023-09-18T08:22:13;17.14;14.52;8.81
82815;PMS5003;72570;46.826;-71.244;2023-09-18T08:24:38;17.55;13.35;7.6
82815;PMS5003;72570;46.826;-71.244;2023-09-18T08:27:03;16.33;14.86;7.57
82815;PMS5003;72570;46.826;-71.244;2023-09-18T08:29:28;13.52;11.33;6.81
82815;PMS5003;72570;46.826;-71.244;2023-09-18T08:31:53;17.05;13.38;9.19
82815;PMS5003;72570;46.826;-71.244;2023-09-18T08:34:17;18.95;13.6;7.65
82815;PMS5003;72570;46.826;-71.244;2023-09-18T08:36:45;17.35;14.6;8.9
82815;PMS5003;72570;46.826;-71.244;2023-09-18T08:39:08;12.76;11.24;6.24
82815;PMS5003;72570;46.826;-71.244;2023-09-18T08:41:36;13.45;13.41;7.59
82815;PMS5003;72570;46.826;-71.244;2023-09-18T08:44:01;16.84;12.84;7.37
82815;PMS5003;72570;46.826;-71.244;2023-09-18T08:46:24;15.1;12.52;6.95
82815;PMS5003;72570;46.826;-71.244;2023-09-18T08:48:50;14.95;13.29;6.76
82815;PMS5003;72570;46.826;-71.244;2023-09-18T08:51:17;16.33;14.9;9.19
82815;PMS5003;72570;46.826;-71.244;2023-09-18T08:53:42;11.95;9.62;5.71
82815;PMS5003;72570;46.826;-71.244;2023-09-18T08:56:06;13.24;10.76;6.62
82815;PMS5003;72570;46.826;-71.244;2023-09-18T08:58:32;18.95;12.67;7.29
82815;PMS5003;72570;46.826;-71.244;2023-09-18T09:13:10;12.1;12.1;5.76
82815;PMS5003;72570;46.826;-71.244;2023-09-18T09:13:31;14.09;12.18;6.82
82815;PMS5003;72570;46.826;-71.244;2023-09-18T09:13:44;9.77;9.77;6.27
82815;PMS5003;72570;46.826;-71.244;2023-09-18T09:14:22;14.59;13.68;7.23
82815;PMS5003;72570;46.826;-71.244;2023-09-18T09:14:35;12.73;10.59;7
82815;PMS5003;72570;46.826;-71.244;2023-09-18T09:15:03;14;12.23;5.55
82815;PMS5003;72570;46.826;-71.244;2023-09-18T09:17:10;14.76;12.81;6.76
82815;PMS5003;72570;46.826;-71.244;2023-09-18T09:19:35;15.33;13.9;9.14
82815;PMS5003;72570;46.826;-71.244;2023-09-18T09:21:59;13.29;11.1;6.9
82815;PMS5003;72570;46.826;-71.244;2023-09-18T09:24:35;15.38;13.57;8.52
82815;PMS5003;72570;46.826;-71.244;2023-09-18T09:26:57;16.67;13.95;8.24
82815;PMS5003;72570;46.826;-71.244;2023-09-18T09:29:17;12.86;12.86;7.9
82815;PMS5003;72570;46.826;-71.244;2023-09-18T09:31:42;16.32;14.05;8.5
82815;PMS5003;72570;46.826;-71.244;2023-09-18T09:34:07;14.95;13.86;7.81
82815;PMS5003;72570;46.826;-71.244;2023-09-18T09:36:31;17.05;13.89;7.68
82815;PMS5003;72570;46.826;-71.244;2023-09-18T09:38:59;14.33;14.33;8.81
82815;PMS5003;72570;46.826;-71.244;2023-09-18T09:41:22;14.52;14.05;6.71
82815;PMS5003;72570;46.826;-71.244;2023-09-18T09:43:48;16.62;15.38;8.38
82815;PMS5003;72570;46.826;-71.244;2023-09-18T09:46:15;16.19;13.48;8.52
82815;PMS5003;72570;46.826;-71.244;2023-09-18T09:48:39;18.23;15.68;8.41
82815;PMS5003;72570;46.826;-71.244;2023-09-18T09:51:05;24.95;17.95;8.65
82815;PMS5003;72570;46.826;-71.244;2023-09-18T09:53:47;16.24;13.71;8.62
82815;PMS5003;72570;46.826;-71.244;2023-09-18T09:55:56;13.52;12.76;8.19
82815;PMS5003;72570;46.826;-71.244;2023-09-18T09:58:25;13.71;12.29;7.33
82815;PMS5003;72570;46.826;-71.244;2023-09-18T10:00:49;18.6;12.7;6.85
82815;PMS5003;72570;46.826;-71.244;2023-09-18T10:03:13;17.76;14.9;7.9
82815;PMS5003;72570;46.826;-71.244;2023-09-18T10:05:37;15.77;12.45;8.45
82815;PMS5003;72570;46.826;-71.244;2023-09-18T10:08:06;16.38;13.48;8.19
82815;PMS5003;72570;46.826;-71.244;2023-09-18T10:10:29;16.33;14.81;8.52
82815;PMS5003;72570;46.826;-71.244;2023-09-18T10:12:52;18.5;14.2;8.65
82815;PMS5003;72570;46.826;-71.244;2023-09-18T10:15:18;15.9;14.33;7.62
82815;PMS5003;72570;46.826;-71.244;2023-09-18T10:17:43;13.38;11.67;6.71
82815;PMS5003;72570;46.826;-71.244;2023-09-18T10:20:08;14;13.71;6.76
82815;PMS5003;72570;46.826;-71.244;2023-09-18T10:22:37;16.36;15.32;8.18
82815;PMS5003;72570;46.826;-71.244;2023-09-18T10:25:11;17.48;16.9;8.43
82815;PMS5003;72570;46.826;-71.244;2023-09-18T10:27:26;16.52;14.76;8.38
82815;PMS5003;72570;46.826;-71.244;2023-09-18T10:29:51;13.95;12.9;8.29
82815;PMS5003;72570;46.826;-71.244;2023-09-18T10:32:14;17.67;14.29;8.33
82815;PMS5003;72570;46.826;-71.244;2023-09-18T10:34:42;17.14;15.67;10.29
82815;PMS5003;72570;46.826;-71.244;2023-09-18T10:37:06;12.33;11.43;5.86
82815;PMS5003;72570;46.826;-71.244;2023-09-18T10:39:33;15.09;14.91;8.14
82815;PMS5003;72570;46.826;-71.244;2023-09-18T10:41:56;18.29;15.19;9.38
82815;PMS5003;72570;46.826;-71.244;2023-09-18T10:44:22;18.71;16.52;9.62
82815;PMS5003;72570;46.826;-71.244;2023-09-18T10:46:47;18.33;13.33;7.05
82815;PMS5003;72570;46.826;-71.244;2023-09-18T10:49:13;13.43;12.81;6.71
82815;PMS5003;72570;46.826;-71.244;2023-09-18T10:51:39;17.95;15.71;8.86
82815;PMS5003;72570;46.826;-71.244;2023-09-18T10:54:05;18.62;15.1;8.52
82815;PMS5003;72570;46.826;-71.244;2023-09-18T10:56:30;19.3;14.7;8.75
82815;PMS5003;72570;46.826;-71.244;2023-09-18T10:58:57;15.29;13.48;7.62
82815;PMS5003;72570;46.826;-71.244;2023-09-18T11:01:21;14.24;13.38;7.1
82815;PMS5003;72570;46.826;-71.244;2023-09-18T11:03:46;18.9;17.95;10.67
82815;PMS5003;72570;46.826;-71.244;2023-09-18T11:06:11;14.33;14.33;7.86
82815;PMS5003;72570;46.826;-71.244;2023-09-18T11:08:43;27.11;17.61;10.44
82815;PMS5003;72570;46.826;-71.244;2023-09-18T11:11:10;16.55;16.18;10.5
82815;PMS5003;72570;46.826;-71.244;2023-09-18T11:13:36;19.32;14.5;8.5
82815;PMS5003;72570;46.826;-71.244;2023-09-18T11:15:59;14.1;13.76;8.9
82815;PMS5003;72570;46.826;-71.244;2023-09-18T11:18:25;19.14;17.48;10.14
82815;PMS5003;72570;46.826;-71.244;2023-09-18T11:21:06;21;16.19;8.33
82815;PMS5003;72570;46.826;-71.244;2023-09-18T11:23:16;22.7;17.15;9.25
82815;PMS5003;72570;46.826;-71.244;2023-09-18T11:25:42;17.86;14.76;9.05
82815;PMS5003;72570;46.826;-71.244;2023-09-18T11:28:05;20.23;16.32;8.82
82815;PMS5003;72570;46.826;-71.244;2023-09-18T11:30:31;25.05;17.8;10.95
82815;PMS5003;72570;46.826;-71.244;2023-09-18T11:32:57;19.76;15.57;7.9
82815;PMS5003;72570;46.826;-71.244;2023-09-18T11:35:22;17.64;15.5;8.5
82815;PMS5003;72570;46.826;-71.244;2023-09-18T11:37:47;17.8;15.9;7.95
82815;PMS5003;72570;46.826;-71.244;2023-09-18T11:40:28;16.1;13.62;7.86
82815;PMS5003;72570;46.826;-71.244;2023-09-18T11:42:39;21.8;15.85;8.7
82815;PMS5003;72570;46.826;-71.244;2023-09-18T11:45:04;16.09;15.36;8.59
82815;PMS5003;72570;46.826;-71.244;2023-09-18T11:47:29;26.2;16.65;9.4
82815;PMS5003;72570;46.826;-71.244;2023-09-18T11:49:56;21.95;15.5;9.65
82815;PMS5003;72570;46.826;-71.244;2023-09-18T11:52:19;16.71;14.67;8.1
82815;PMS5003;72570;46.826;-71.244;2023-09-18T11:54:45;15.76;14.1;7.86
82815;PMS5003;72570;46.826;-71.244;2023-09-18T11:57:12;16.48;15.24;7.9
82815;PMS5003;72570;46.826;-71.244;2023-09-18T11:59:36;13.43;13.33;6.95
82815;PMS5003;72570;46.826;-71.244;2023-09-18T12:02:03;16.5;14.27;8.36
82815;PMS5003;72570;46.826;-71.244;2023-09-18T12:04:28;17.1;16.24;8.38
82815;PMS5003;72570;46.826;-71.244;2023-09-18T12:06:53;23.24;17.76;9.38
82815;PMS5003;72570;46.826;-71.244;2023-09-18T12:09:18;15.95;15.29;7.67
82815;PMS5003;72570;46.826;-71.244;2023-09-18T12:11:42;16.76;16.24;8.19
82815;PMS5003;72570;46.826;-71.244;2023-09-18T12:14:08;18.85;15.65;9.25
82815;PMS5003;72570;46.826;-71.244;2023-09-18T12:16:37;17.86;16.67;8.33
82815;PMS5003;72570;46.826;-71.244;2023-09-18T12:19:01;16.64;14.64;8.36
82815;PMS5003;72570;46.826;-71.244;2023-09-18T12:21:27;17.24;14.05;9.48
82815;PMS5003;72570;46.826;-71.244;2023-09-18T12:23:51;18.86;16.86;8.71
82815;PMS5003;72570;46.826;-71.244;2023-09-18T12:26:16;18.95;16.52;9
82815;PMS5003;72570;46.826;-71.244;2023-09-18T12:28:41;18.19;13.71;8.9
82815;PMS5003;72570;46.826;-71.244;2023-09-18T12:31:05;20.81;17.05;10.05
82815;PMS5003;72570;46.826;-71.244;2023-09-18T12:33:30;18.67;17.1;10.86
82815;PMS5003;72570;46.826;-71.244;2023-09-18T12:35:56;19.23;16.59;10.59
82815;PMS5003;72570;46.826;-71.244;2023-09-18T12:38:23;25.65;19.55;11.25
82815;PMS5003;72570;46.826;-71.244;2023-09-18T12:40:47;20.14;19.38;12.52
82815;PMS5003;72570;46.826;-71.244;2023-09-18T12:43:14;23;18.3;10.25
82815;PMS5003;72570;46.826;-71.244;2023-09-18T12:45:40;19.91;18.23;10.64
82815;PMS5003;72570;46.826;-71.244;2023-09-18T12:48:05;18.95;17.48;11.57
82815;PMS5003;72570;46.826;-71.244;2023-09-18T12:50:30;23.7;17.9;9.8
82815;PMS5003;72570;46.826;-71.244;2023-09-18T12:53:06;20.9;17.38;9.43
82815;PMS5003;72570;46.826;-71.244;2023-09-18T12:55:20;20.24;18.9;9.38
82815;PMS5003;72570;46.826;-71.244;2023-09-18T12:57:46;21.24;18.38;10.24
82815;PMS5003;72570;46.826;-71.244;2023-09-18T13:00:12;20.95;16.9;9.14
82815;PMS5003;72570;46.826;-71.244;2023-09-18T13:02:37;20.57;17.9;9.19
82815;PMS5003;72570;46.826;-71.244;2023-09-18T13:05:02;18.14;15.62;10.76
82815;PMS5003;72570;46.826;-71.244;2023-09-18T13:07:27;25.95;20.9;12.43
82815;PMS5003;72570;46.826;-71.244;2023-09-18T13:09:59;24.67;18.29;10.9
82815;PMS5003;72570;46.826;-71.244;2023-09-18T13:12:18;25.11;20;11.37
82815;PMS5003;72570;46.826;-71.244;2023-09-18T13:14:59;23.76;21.9;12.14
82815;PMS5003;72570;46.826;-71.244;2023-09-18T13:17:07;26.1;19.14;10.86
82815;PMS5003;72570;46.826;-71.244;2023-09-18T13:19:34;23.1;20.19;10.33
82815;PMS5003;72570;46.826;-71.244;2023-09-18T13:21:59;26.16;22.05;13.05
82815;PMS5003;72570;46.826;-71.244;2023-09-18T13:24:25;22.05;21.48;12.19
82815;PMS5003;72570;46.826;-71.244;2023-09-18T13:26:50;24.5;22.14;12.86
82815;PMS5003;72570;46.826;-71.244;2023-09-18T13:29:16;32.17;23.72;13.06
82815;PMS5003;72570;46.826;-71.244;2023-09-18T13:31:42;25;21.52;12.05
82815;PMS5003;72570;46.826;-71.244;2023-09-18T13:34:07;27.62;22.62;12.52
82815;PMS5003;72570;46.826;-71.244;2023-09-18T13:36:33;31.58;22;12.26